Aérodrome :
LOGIN :

S'inscrire | Disclaimer

   EN    FR    IT 

 










Légende :    VFR   VFR Marginal   IFR   IFR Intensif   IFR Très Intensif
Visi : 
Plafond : 
>= 8 km
>= 3000ft
5 à 8 km
1000 à 3000 ft
1500m à 5 km
500 à 1000 ft
800 à 1500m
200 à 500 ft
< 800m
< 200 ft
Symboles :   Orages  Brouillard  Fortes neiges  Fortes précipitations  Vent > 20 kt
SIGMETs :   Divers  Orages  Givrage  Turbulence  Onde Orograph.  Cendres Volcan.







- Altitude de l'aérodrome : 16 ft
- Code IATA : AAE


DABB - Annaba-Rabah Bitat

DERNIER METAR :
  • 230430Z 23003KT 8000 FEW023 BKN030 06/04 Q1003

METARs EXPIRÉS :
  • 230400Z 24004KT 8000 FEW023 BKN030 06/04 Q1003
  • 230330Z 24006KT 8000 FEW023 BKN030 06/05 Q1004
  • 230300Z 25024KT 8000 FEW023TCU BKN030 06/05 Q1004
  • 230230Z 18002KT 8000 FEW023TCU BKN030 04/04 Q1006
  • 230200Z 00000KT 8000 FEW023TCU BKN030 04/04 Q1006

TAF TAF DABB
Valide du 23 à 00h jusqu'au 24 à 00h UTC


222300Z 2300/2324 28012KT 9999 FEW015TCU BKN023
PROB30
TEMPO 2300/2310 2000 -RA BR BKN006
TEMPO 2310/2316 30015G25KT 4000 -TSRA FEW020CB
PROB30
TEMPO 2316/2324 30020G30KT 2000 TSRA SCT020CB
Pas de NOTAMs connus pour ce terrain.



MET'MAP, la Météo Aéronautique d'un coup d'oeil ! - Copyright ORBIFLY Décembre 2007 - Disclaimer

ORBIFLY MET'MAP TEAM :

Programmation & Développement : Alexandra Zaïnal
Conception & Développement : Baudouin d'Aumeries
Co-Programmation & Développement : Marc-Olivier Méhu
Soutien technique & logistique : Manuel Goepfert

Contact : metmap@orbifly.com




SOURCES & CREDITS :

   NOAA